sensor_id;sensor_type;location;lat;lon;timestamp;pressure;altitude;pressure_sealevel;temperature;humidity
12793;BME280;6460;42.684;23.260;2023-07-22T05:15:37;94594.09;;;24.61;73.14
12793;BME280;6460;42.684;23.260;2023-07-22T05:18:05;94592.81;;;24.53;73.30
12793;BME280;6460;42.684;23.260;2023-07-22T05:20:32;94584.66;;;24.62;73.73
12793;BME280;6460;42.684;23.260;2023-07-22T05:22:59;94586.28;;;24.72;73.07
12793;BME280;6460;42.684;23.260;2023-07-22T05:25:27;94585.63;;;24.68;73.46
12793;BME280;6460;42.684;23.260;2023-07-22T05:27:54;94598.94;;;24.69;73.79
12793;BME280;6460;42.684;23.260;2023-07-22T05:30:22;94587.16;;;24.82;73.70
12793;BME280;6460;42.684;23.260;2023-07-22T05:32:53;94590.66;;;24.82;73.83
12793;BME280;6460;42.684;23.260;2023-07-22T05:35:20;94585.38;;;24.75;74.20
12793;BME280;6460;42.684;23.260;2023-07-22T05:37:48;94594.72;;;24.77;73.87
12793;BME280;6460;42.684;23.260;2023-07-22T05:40:15;94585.88;;;24.95;73.37
12793;BME280;6460;42.684;23.260;2023-07-22T05:42:43;94595.47;;;25.12;72.48
12793;BME280;6460;42.684;23.260;2023-07-22T05:45:10;94598.50;;;25.14;72.31
12793;BME280;6460;42.684;23.260;2023-07-22T05:47:41;94594.28;;;25.44;71.26
12793;BME280;6460;42.684;23.260;2023-07-22T05:50:10;94592.53;;;25.59;70.72
12793;BME280;6460;42.684;23.260;2023-07-22T05:52:37;94598.81;;;25.60;70.65
12793;BME280;6460;42.684;23.260;2023-07-22T05:55:05;94595.13;;;25.85;70.04
12793;BME280;6460;42.684;23.260;2023-07-22T05:57:32;94591.53;;;26.06;69.38
12793;BME280;6460;42.684;23.260;2023-07-22T06:00:00;94592.66;;;26.17;69.06
12793;BME280;6460;42.684;23.260;2023-07-22T06:02:28;94595.63;;;26.41;67.30
12793;BME280;6460;42.684;23.260;2023-07-22T06:04:54;94607.09;;;26.49;66.95
12793;BME280;6460;42.684;23.260;2023-07-22T06:07:23;94603.75;;;26.54;67.25
12793;BME280;6460;42.684;23.260;2023-07-22T06:09:51;94610.19;;;26.51;67.40
12793;BME280;6460;42.684;23.260;2023-07-22T06:12:17;94620.25;;;26.36;67.37
12793;BME280;6460;42.684;23.260;2023-07-22T06:14:44;94625.03;;;26.53;66.13
12793;BME280;6460;42.684;23.260;2023-07-22T06:17:12;94623.94;;;26.42;66.43
12793;BME280;6460;42.684;23.260;2023-07-22T06:19:39;94625.06;;;26.71;65.80
12793;BME280;6460;42.684;23.260;2023-07-22T06:22:06;94628.03;;;26.86;65.02
12793;BME280;6460;42.684;23.260;2023-07-22T06:24:34;94624.94;;;26.84;65.30
12793;BME280;6460;42.684;23.260;2023-07-22T06:27:01;94634.13;;;26.90;65.53
12793;BME280;6460;42.684;23.260;2023-07-22T06:29:30;94635.69;;;26.24;68.39
12793;BME280;6460;42.684;23.260;2023-07-22T06:31:57;94639.16;;;26.73;66.63
12793;BME280;6460;42.684;23.260;2023-07-22T06:34:24;94631.69;;;27.01;65.47
12793;BME280;6460;42.684;23.260;2023-07-22T06:36:51;94641.19;;;27.27;64.78
12793;BME280;6460;42.684;23.260;2023-07-22T06:39:18;94644.56;;;27.50;64.63
12793;BME280;6460;42.684;23.260;2023-07-22T06:41:46;94645.00;;;27.39;64.24
12793;BME280;6460;42.684;23.260;2023-07-22T06:44:13;94632.75;;;27.40;62.39
12793;BME280;6460;42.684;23.260;2023-07-22T06:46:40;94640.53;;;27.69;64.15
12793;BME280;6460;42.684;23.260;2023-07-22T06:49:07;94642.69;;;27.65;63.24
12793;BME280;6460;42.684;23.260;2023-07-22T06:51:34;94639.78;;;27.68;62.80
12793;BME280;6460;42.684;23.260;2023-07-22T06:54:02;94638.72;;;27.39;63.56
12793;BME280;6460;42.684;23.260;2023-07-22T06:56:29;94629.72;;;27.89;59.73
12793;BME280;6460;42.684;23.260;2023-07-22T06:58:58;94623.97;;;27.69;62.04
12793;BME280;6460;42.684;23.260;2023-07-22T07:01:25;94628.81;;;27.83;63.45
12793;BME280;6460;42.684;23.260;2023-07-22T07:03:51;94621.28;;;28.58;60.71
12793;BME280;6460;42.684;23.260;2023-07-22T07:06:18;94622.13;;;28.97;58.69
12793;BME280;6460;42.684;23.260;2023-07-22T07:08:46;94611.44;;;29.28;57.53
12793;BME280;6460;42.684;23.260;2023-07-22T07:11:14;94621.66;;;29.52;54.37
12793;BME280;6460;42.684;23.260;2023-07-22T07:13:41;94613.34;;;29.52;55.43
12793;BME280;6460;42.684;23.260;2023-07-22T07:16:23;94611.94;;;29.42;56.56
12793;BME280;6460;42.684;23.260;2023-07-22T07:18:50;94612.28;;;28.49;57.74
12793;BME280;6460;42.684;23.260;2023-07-22T07:21:17;94623.78;;;28.23;59.81
12793;BME280;6460;42.684;23.260;2023-07-22T07:23:45;94612.31;;;29.11;58.16
12793;BME280;6460;42.684;23.260;2023-07-22T07:26:12;94610.09;;;29.53;56.48
12793;BME280;6460;42.684;23.260;2023-07-22T07:28:39;94598.84;;;29.86;55.62
12793;BME280;6460;42.684;23.260;2023-07-22T07:31:06;94604.75;;;30.08;54.20
12793;BME280;6460;42.684;23.260;2023-07-22T07:33:35;94607.66;;;30.19;53.47
12793;BME280;6460;42.684;23.260;2023-07-22T07:36:02;94612.56;;;30.24;52.75
12793;BME280;6460;42.684;23.260;2023-07-22T07:38:29;94601.34;;;30.33;52.84
12793;BME280;6460;42.684;23.260;2023-07-22T07:40:59;94595.75;;;30.13;52.84
12793;BME280;6460;42.684;23.260;2023-07-22T07:43:27;94602.19;;;30.39;51.80
12793;BME280;6460;42.684;23.260;2023-07-22T07:46:12;94593.16;;;30.59;51.23
12793;BME280;6460;42.684;23.260;2023-07-22T07:48:41;94595.38;;;30.75;51.37
12793;BME280;6460;42.684;23.260;2023-07-22T07:51:08;94594.75;;;30.66;51.14
12793;BME280;6460;42.684;23.260;2023-07-22T07:53:35;94581.16;;;29.98;52.40
12793;BME280;6460;42.684;23.260;2023-07-22T07:56:02;94585.78;;;30.76;49.59
12793;BME280;6460;42.684;23.260;2023-07-22T08:50:26;94525.88;;;32.89;44.90
12793;BME280;6460;42.684;23.260;2023-07-22T08:52:54;94526.53;;;33.43;43.61
12793;BME280;6460;42.684;23.260;2023-07-22T08:55:22;94527.28;;;33.54;42.74
12793;BME280;6460;42.684;23.260;2023-07-22T08:57:50;94522.50;;;33.61;41.23
12793;BME280;6460;42.684;23.260;2023-07-22T09:00:17;94520.97;;;33.93;40.71
12793;BME280;6460;42.684;23.260;2023-07-22T09:02:44;94526.53;;;33.76;39.63
12793;BME280;6460;42.684;23.260;2023-07-22T09:05:12;94513.13;;;33.64;40.56
12793;BME280;6460;42.684;23.260;2023-07-22T09:07:41;94514.28;;;34.40;40.93
12793;BME280;6460;42.684;23.260;2023-07-22T09:10:09;94509.06;;;33.87;40.37
12793;BME280;6460;42.684;23.260;2023-07-22T09:12:37;94513.59;;;33.95;41.26
12793;BME280;6460;42.684;23.260;2023-07-22T09:15:08;94513.63;;;33.84;41.41
12793;BME280;6460;42.684;23.260;2023-07-22T09:17:36;94516.25;;;34.68;39.24
12793;BME280;6460;42.684;23.260;2023-07-22T09:20:05;94518.94;;;34.90;37.84
12793;BME280;6460;42.684;23.260;2023-07-22T09:22:33;94511.22;;;35.07;37.62
12793;BME280;6460;42.684;23.260;2023-07-22T09:25:16;94511.22;;;34.61;39.03
12793;BME280;6460;42.684;23.260;2023-07-22T09:27:44;94511.22;;;35.07;37.66
12793;BME280;6460;42.684;23.260;2023-07-22T09:30:22;94507.59;;;35.29;37.54
12793;BME280;6460;42.684;23.260;2023-07-22T09:32:50;94511.44;;;35.55;36.59
12793;BME280;6460;42.684;23.260;2023-07-22T09:35:18;94516.44;;;35.74;35.74
12793;BME280;6460;42.684;23.260;2023-07-22T09:37:45;94505.69;;;35.78;35.48
12793;BME280;6460;42.684;23.260;2023-07-22T09:40:18;94502.19;;;35.72;36.27
12793;BME280;6460;42.684;23.260;2023-07-22T09:42:47;94498.88;;;35.73;35.66
12793;BME280;6460;42.684;23.260;2023-07-22T09:45:14;94499.91;;;36.00;35.29
12793;BME280;6460;42.684;23.260;2023-07-22T09:47:42;94491.53;;;36.48;33.21
12793;BME280;6460;42.684;23.260;2023-07-22T09:50:13;94486.44;;;35.98;34.33
12793;BME280;6460;42.684;23.260;2023-07-22T09:52:44;94483.16;;;36.67;32.78
12793;BME280;6460;42.684;23.260;2023-07-22T09:55:12;94480.84;;;36.90;31.57
12793;BME280;6460;42.684;23.260;2023-07-22T09:57:44;94485.06;;;36.59;31.26
12793;BME280;6460;42.684;23.260;2023-07-22T10:00:13;94486.50;;;36.66;31.69
12793;BME280;6460;42.684;23.260;2023-07-22T10:02:42;94482.63;;;35.36;34.02
12793;BME280;6460;42.684;23.260;2023-07-22T10:05:12;94483.59;;;35.44;32.86
12793;BME280;6460;42.684;23.260;2023-07-22T10:07:43;94477.84;;;35.91;31.62
12793;BME280;6460;42.684;23.260;2023-07-22T10:10:12;94478.16;;;34.70;31.32
12793;BME280;6460;42.684;23.260;2023-07-22T10:12:42;94481.91;;;34.78;34.34
12793;BME280;6460;42.684;23.260;2023-07-22T10:15:09;94489.19;;;34.35;32.24
12793;BME280;6460;42.684;23.260;2023-07-22T10:17:38;94496.09;;;34.06;32.46
12793;BME280;6460;42.684;23.260;2023-07-22T10:20:06;94483.06;;;34.47;33.03
12793;BME280;6460;42.684;23.260;2023-07-22T10:22:36;94484.44;;;34.02;33.11
12793;BME280;6460;42.684;23.260;2023-07-22T10:25:04;94483.97;;;33.65;34.46
12793;BME280;6460;42.684;23.260;2023-07-22T10:27:34;94490.28;;;34.04;34.20
12793;BME280;6460;42.684;23.260;2023-07-22T10:30:03;94480.34;;;34.09;33.53
12793;BME280;6460;42.684;23.260;2023-07-22T10:32:35;94476.59;;;33.95;32.92
12793;BME280;6460;42.684;23.260;2023-07-22T10:35:03;94475.13;;;33.66;34.08
12793;BME280;6460;42.684;23.260;2023-07-22T10:37:31;94483.63;;;34.29;32.91
12793;BME280;6460;42.684;23.260;2023-07-22T10:40:16;94482.63;;;34.21;32.51
12793;BME280;6460;42.684;23.260;2023-07-22T10:42:52;94471.66;;;34.45;32.26
12793;BME280;6460;42.684;23.260;2023-07-22T10:45:29;94464.91;;;34.13;33.39
12793;BME280;6460;42.684;23.260;2023-07-22T10:48:04;94465.84;;;34.38;33.14
12793;BME280;6460;42.684;23.260;2023-07-22T10:50:45;94465.88;;;34.32;33.46
12793;BME280;6460;42.684;23.260;2023-07-22T10:53:19;94464.59;;;34.33;32.81
12793;BME280;6460;42.684;23.260;2023-07-22T10:56:07;94457.25;;;34.30;31.09
12793;BME280;6460;42.684;23.260;2023-07-22T10:58:58;94473.91;;;34.52;31.38
12793;BME280;6460;42.684;23.260;2023-07-22T11:01:33;94468.31;;;34.64;31.58
12793;BME280;6460;42.684;23.260;2023-07-22T11:04:21;94458.59;;;35.22;30.99
12793;BME280;6460;42.684;23.260;2023-07-22T11:06:57;94458.09;;;35.53;29.76
12793;BME280;6460;42.684;23.260;2023-07-22T11:09:40;94463.03;;;35.72;28.73
12793;BME280;6460;42.684;23.260;2023-07-22T11:12:14;94443.69;;;35.44;29.54
12793;BME280;6460;42.684;23.260;2023-07-22T11:14:48;94441.84;;;36.06;29.08
12793;BME280;6460;42.684;23.260;2023-07-22T11:17:18;94445.22;;;35.99;29.07
12793;BME280;6460;42.684;23.260;2023-07-22T11:19:45;94452.50;;;35.83;28.60
12793;BME280;6460;42.684;23.260;2023-07-22T11:22:14;94449.22;;;36.09;29.09
12793;BME280;6460;42.684;23.260;2023-07-22T11:24:42;94444.78;;;36.19;28.22
12793;BME280;6460;42.684;23.260;2023-07-22T11:27:09;94437.34;;;35.73;29.35
12793;BME280;6460;42.684;23.260;2023-07-22T11:29:36;94461.94;;;35.15;29.80
12793;BME280;6460;42.684;23.260;2023-07-22T11:32:04;94441.91;;;35.76;28.86
12793;BME280;6460;42.684;23.260;2023-07-22T11:34:33;94440.91;;;35.98;28.85
12793;BME280;6460;42.684;23.260;2023-07-22T11:37:00;94442.97;;;35.38;29.62
12793;BME280;6460;42.684;23.260;2023-07-22T11:39:27;94423.78;;;35.83;28.51
12793;BME280;6460;42.684;23.260;2023-07-22T11:42:00;94449.53;;;36.00;28.98
12793;BME280;6460;42.684;23.260;2023-07-22T11:44:28;94427.69;;;36.23;28.29
12793;BME280;6460;42.684;23.260;2023-07-22T11:46:57;94416.50;;;36.23;29.43
12793;BME280;6460;42.684;23.260;2023-07-22T11:49:26;94434.75;;;36.05;29.82
12793;BME280;6460;42.684;23.260;2023-07-22T11:52:00;94421.91;;;35.67;30.23
12793;BME280;6460;42.684;23.260;2023-07-22T11:54:28;94411.47;;;35.67;30.20
12793;BME280;6460;42.684;23.260;2023-07-22T11:56:56;94445.84;;;35.27;30.36
12793;BME280;6460;42.684;23.260;2023-07-22T11:59:34;94435.28;;;35.08;30.34
12793;BME280;6460;42.684;23.260;2023-07-22T12:02:02;94420.84;;;35.10;30.06
12793;BME280;6460;42.684;23.260;2023-07-22T12:04:31;94422.84;;;35.75;29.47
12793;BME280;6460;42.684;23.260;2023-07-22T12:07:00;94434.81;;;35.99;29.35
12793;BME280;6460;42.684;23.260;2023-07-22T12:09:30;94408.03;;;35.80;28.81
12793;BME280;6460;42.684;23.260;2023-07-22T12:11:58;94416.34;;;36.15;28.78
12793;BME280;6460;42.684;23.260;2023-07-22T12:14:32;94411.91;;;35.77;29.62
12793;BME280;6460;42.684;23.260;2023-07-22T12:17:00;94409.41;;;36.40;28.57
12793;BME280;6460;42.684;23.260;2023-07-22T12:19:28;94412.84;;;36.09;29.50
12793;BME280;6460;42.684;23.260;2023-07-22T12:21:55;94409.75;;;35.58;29.95
12793;BME280;6460;42.684;23.260;2023-07-22T12:24:24;94400.91;;;36.03;29.33
12793;BME280;6460;42.684;23.260;2023-07-22T12:26:52;94403.84;;;35.92;29.66
12793;BME280;6460;42.684;23.260;2023-07-22T12:29:19;94408.38;;;35.41;30.68
12793;BME280;6460;42.684;23.260;2023-07-22T12:31:47;94402.06;;;35.65;30.73
12793;BME280;6460;42.684;23.260;2023-07-22T12:34:15;94402.41;;;35.55;30.88
12793;BME280;6460;42.684;23.260;2023-07-22T12:36:42;94395.28;;;35.60;30.68
12793;BME280;6460;42.684;23.260;2023-07-22T12:39:10;94397.84;;;35.52;31.49
12793;BME280;6460;42.684;23.260;2023-07-22T12:41:39;94397.19;;;35.95;29.66
12793;BME280;6460;42.684;23.260;2023-07-22T12:44:06;94377.22;;;36.28;29.69
12793;BME280;6460;42.684;23.260;2023-07-22T12:46:33;94379.22;;;36.71;28.58
12793;BME280;6460;42.684;23.260;2023-07-22T12:49:01;94376.13;;;36.74;28.24
12793;BME280;6460;42.684;23.260;2023-07-22T12:51:28;94371.94;;;37.31;28.17
12793;BME280;6460;42.684;23.260;2023-07-22T12:53:55;94377.00;;;37.20;27.35
12793;BME280;6460;42.684;23.260;2023-07-22T12:56:22;94367.50;;;37.54;26.97
12793;BME280;6460;42.684;23.260;2023-07-22T12:58:51;94382.69;;;37.46;26.76
12793;BME280;6460;42.684;23.260;2023-07-22T13:01:18;94368.84;;;37.35;27.05
12793;BME280;6460;42.684;23.260;2023-07-22T13:03:45;94361.91;;;37.54;27.35
12793;BME280;6460;42.684;23.260;2023-07-22T13:06:12;94359.75;;;37.87;26.76
12793;BME280;6460;42.684;23.260;2023-07-22T13:08:40;94353.06;;;37.90;26.28
12793;BME280;6460;42.684;23.260;2023-07-22T13:11:06;94351.88;;;37.85;26.95
12793;BME280;6460;42.684;23.260;2023-07-22T13:13:33;94354.13;;;37.60;27.08
12793;BME280;6460;42.684;23.260;2023-07-22T13:16:02;94347.34;;;37.69;26.81
12793;BME280;6460;42.684;23.260;2023-07-22T13:18:30;94344.00;;;37.71;26.27
12793;BME280;6460;42.684;23.260;2023-07-22T13:20:57;94344.84;;;38.31;26.00
12793;BME280;6460;42.684;23.260;2023-07-22T13:23:24;94350.38;;;38.37;26.49
12793;BME280;6460;42.684;23.260;2023-07-22T13:25:51;94344.84;;;38.44;25.65
12793;BME280;6460;42.684;23.260;2023-07-22T13:28:18;94350.91;;;38.22;25.51
12793;BME280;6460;42.684;23.260;2023-07-22T13:30:46;94345.97;;;38.02;25.39
12793;BME280;6460;42.684;23.260;2023-07-22T13:33:14;94338.94;;;38.08;25.46
12793;BME280;6460;42.684;23.260;2023-07-22T13:35:42;94335.59;;;37.84;25.81
12793;BME280;6460;42.684;23.260;2023-07-22T13:38:09;94333.44;;;38.03;26.26
12793;BME280;6460;42.684;23.260;2023-07-22T13:40:36;94330.41;;;37.88;26.74
12793;BME280;6460;42.684;23.260;2023-07-22T13:43:03;94326.00;;;38.05;26.41
12793;BME280;6460;42.684;23.260;2023-07-22T13:45:32;94326.19;;;37.94;26.33
12793;BME280;6460;42.684;23.260;2023-07-22T13:47:59;94325.22;;;38.05;26.32
12793;BME280;6460;42.684;23.260;2023-07-22T13:50:28;94329.00;;;37.81;25.80
12793;BME280;6460;42.684;23.260;2023-07-22T13:52:55;94327.59;;;37.61;25.78
12793;BME280;6460;42.684;23.260;2023-07-22T13:55:22;94322.00;;;37.88;25.73
12793;BME280;6460;42.684;23.260;2023-07-22T13:57:49;94323.91;;;38.32;25.30
12793;BME280;6460;42.684;23.260;2023-07-22T14:00:16;94325.84;;;38.37;25.56
12793;BME280;6460;42.684;23.260;2023-07-22T14:02:43;94322.13;;;38.55;25.45
12793;BME280;6460;42.684;23.260;2023-07-22T14:05:10;94318.16;;;38.51;25.04
12793;BME280;6460;42.684;23.260;2023-07-22T14:07:39;94320.66;;;38.41;25.32
12793;BME280;6460;42.684;23.260;2023-07-22T14:10:06;94318.41;;;38.74;24.09
12793;BME280;6460;42.684;23.260;2023-07-22T14:12:34;94323.03;;;38.71;23.50
12793;BME280;6460;42.684;23.260;2023-07-22T14:15:01;94320.72;;;38.96;23.19
12793;BME280;6460;42.684;23.260;2023-07-22T14:17:30;94322.34;;;39.53;23.21
12793;BME280;6460;42.684;23.260;2023-07-22T14:19:58;94322.16;;;39.80;23.15
12793;BME280;6460;42.684;23.260;2023-07-22T14:22:24;94325.13;;;39.74;22.74
12793;BME280;6460;42.684;23.260;2023-07-22T14:24:53;94327.41;;;39.76;22.98
12793;BME280;6460;42.684;23.260;2023-07-22T14:27:20;94335.81;;;39.47;23.17
12793;BME280;6460;42.684;23.260;2023-07-22T14:29:47;94342.06;;;39.33;22.86
12793;BME280;6460;42.684;23.260;2023-07-22T14:32:14;94347.31;;;39.78;23.06
12793;BME280;6460;42.684;23.260;2023-07-22T14:34:42;94343.31;;;39.73;23.25
12793;BME280;6460;42.684;23.260;2023-07-22T14:37:08;94349.84;;;40.25;23.96
12793;BME280;6460;42.684;23.260;2023-07-22T14:39:35;94342.72;;;39.46;21.85
12793;BME280;6460;42.684;23.260;2023-07-22T14:42:07;94341.63;;;40.34;21.53
12793;BME280;6460;42.684;23.260;2023-07-22T14:44:34;94349.66;;;39.94;20.36
12793;BME280;6460;42.684;23.260;2023-07-22T14:47:02;94345.25;;;39.57;20.82
12793;BME280;6460;42.684;23.260;2023-07-22T14:49:29;94335.66;;;38.91;21.24
12793;BME280;6460;42.684;23.260;2023-07-22T14:51:56;94317.88;;;39.58;21.41
12793;BME280;6460;42.684;23.260;2023-07-22T14:54:26;94330.47;;;39.64;21.02
12793;BME280;6460;42.684;23.260;2023-07-22T14:56:54;94342.13;;;39.40;21.62
12793;BME280;6460;42.684;23.260;2023-07-22T14:59:27;94326.19;;;39.22;21.18
12793;BME280;6460;42.684;23.260;2023-07-22T15:01:55;94322.97;;;39.18;21.28
12793;BME280;6460;42.684;23.260;2023-07-22T15:04:22;94339.56;;;39.08;21.18
12793;BME280;6460;42.684;23.260;2023-07-22T15:06:50;94343.13;;;37.76;22.05
12793;BME280;6460;42.684;23.260;2023-07-22T15:09:17;94335.16;;;37.80;22.38
12793;BME280;6460;42.684;23.260;2023-07-22T15:11:46;94332.56;;;37.55;22.45
12793;BME280;6460;42.684;23.260;2023-07-22T15:14:13;94335.16;;;37.80;22.61
12793;BME280;6460;42.684;23.260;2023-07-22T15:16:42;94343.69;;;37.29;23.08
12793;BME280;6460;42.684;23.260;2023-07-22T15:19:09;94323.16;;;38.19;22.65
12793;BME280;6460;42.684;23.260;2023-07-22T15:21:36;94330.75;;;38.71;22.08
12793;BME280;6460;42.684;23.260;2023-07-22T15:24:05;94336.75;;;39.08;21.87
12793;BME280;6460;42.684;23.260;2023-07-22T15:26:32;94335.38;;;38.68;21.93
12793;BME280;6460;42.684;23.260;2023-07-22T15:28:59;94323.00;;;38.50;22.61
12793;BME280;6460;42.684;23.260;2023-07-22T15:31:26;94326.84;;;38.74;21.81
12793;BME280;6460;42.684;23.260;2023-07-22T15:33:55;94315.47;;;39.00;22.07
12793;BME280;6460;42.684;23.260;2023-07-22T15:36:22;94323.47;;;39.09;22.93
12793;BME280;6460;42.684;23.260;2023-07-22T15:38:49;94333.94;;;38.41;23.86
12793;BME280;6460;42.684;23.260;2023-07-22T15:41:17;94337.41;;;38.47;24.01
12793;BME280;6460;42.684;23.260;2023-07-22T15:43:44;94330.81;;;38.31;24.58
12793;BME280;6460;42.684;23.260;2023-07-22T15:46:11;94330.72;;;38.37;25.09
12793;BME280;6460;42.684;23.260;2023-07-22T15:48:38;94317.59;;;38.52;24.88
12793;BME280;6460;42.684;23.260;2023-07-22T15:51:07;94325.88;;;38.11;24.60
12793;BME280;6460;42.684;23.260;2023-07-22T15:53:34;94320.91;;;37.65;25.72
12793;BME280;6460;42.684;23.260;2023-07-22T15:56:01;94320.06;;;37.25;26.31
12793;BME280;6460;42.684;23.260;2023-07-22T15:58:28;94320.50;;;36.97;26.38
12793;BME280;6460;42.684;23.260;2023-07-22T16:00:55;94338.03;;;36.09;27.93
12793;BME280;6460;42.684;23.260;2023-07-22T16:03:23;94326.31;;;36.11;28.02
12793;BME280;6460;42.684;23.260;2023-07-22T16:05:50;94339.97;;;35.72;28.81
12793;BME280;6460;42.684;23.260;2023-07-22T16:08:18;94329.91;;;35.33;29.76
12793;BME280;6460;42.684;23.260;2023-07-22T16:10:45;94323.41;;;35.25;30.12
12793;BME280;6460;42.684;23.260;2023-07-22T16:13:13;94322.41;;;35.23;30.56
12793;BME280;6460;42.684;23.260;2023-07-22T16:15:40;94311.06;;;35.15;30.95
12793;BME280;6460;42.684;23.260;2023-07-22T16:18:07;94312.63;;;35.35;30.83
12793;BME280;6460;42.684;23.260;2023-07-22T16:20:34;94311.31;;;35.41;31.02
12793;BME280;6460;42.684;23.260;2023-07-22T16:23:01;94296.97;;;35.75;30.64
12793;BME280;6460;42.684;23.260;2023-07-22T16:25:30;94290.03;;;35.57;31.07
12793;BME280;6460;42.684;23.260;2023-07-22T16:27:57;94295.75;;;36.13;30.24
12793;BME280;6460;42.684;23.260;2023-07-22T16:30:26;94295.63;;;36.00;30.84
12793;BME280;6460;42.684;23.260;2023-07-22T16:32:53;94301.28;;;35.51;31.63
12793;BME280;6460;42.684;23.260;2023-07-22T16:35:20;94300.34;;;35.68;31.95
12793;BME280;6460;42.684;23.260;2023-07-22T16:37:48;94293.50;;;36.30;30.94
12793;BME280;6460;42.684;23.260;2023-07-22T16:40:15;94297.75;;;35.51;32.16
12793;BME280;6460;42.684;23.260;2023-07-22T16:42:45;94295.38;;;35.61;31.45
12793;BME280;6460;42.684;23.260;2023-07-22T16:45:12;94290.63;;;36.17;31.17
12793;BME280;6460;42.684;23.260;2023-07-22T16:47:39;94300.50;;;35.99;31.42
12793;BME280;6460;42.684;23.260;2023-07-22T16:50:07;94304.41;;;36.15;31.14
12793;BME280;6460;42.684;23.260;2023-07-22T16:52:35;94309.81;;;36.82;30.32
12793;BME280;6460;42.684;23.260;2023-07-22T16:55:03;94319.69;;;37.02;30.12
12793;BME280;6460;42.684;23.260;2023-07-22T16:57:30;94331.31;;;36.74;31.66
12793;BME280;6460;42.684;23.260;2023-07-22T16:59:59;94340.25;;;36.35;32.47
12793;BME280;6460;42.684;23.260;2023-07-22T17:02:27;94351.50;;;36.11;33.26
12793;BME280;6460;42.684;23.260;2023-07-22T17:04:54;94359.31;;;35.94;33.48
12793;BME280;6460;42.684;23.260;2023-07-22T17:07:21;94365.03;;;35.83;34.21
12793;BME280;6460;42.684;23.260;2023-07-22T17:09:48;94354.22;;;35.74;34.31
12793;BME280;6460;42.684;23.260;2023-07-22T17:12:16;94358.63;;;35.88;33.20
12793;BME280;6460;42.684;23.260;2023-07-22T17:14:43;94357.84;;;35.87;33.34
12793;BME280;6460;42.684;23.260;2023-07-22T17:17:11;94361.66;;;35.90;32.91
12793;BME280;6460;42.684;23.260;2023-07-22T17:19:39;94367.00;;;35.88;33.15
12793;BME280;6460;42.684;23.260;2023-07-22T17:22:06;94371.16;;;35.81;33.70
12793;BME280;6460;42.684;23.260;2023-07-22T17:24:33;94373.13;;;35.86;33.75
12793;BME280;6460;42.684;23.260;2023-07-22T17:27:00;94373.94;;;35.81;33.74
12793;BME280;6460;42.684;23.260;2023-07-22T17:29:27;94359.34;;;35.70;33.83
12793;BME280;6460;42.684;23.260;2023-07-22T17:31:55;94351.63;;;35.51;34.09
12793;BME280;6460;42.684;23.260;2023-07-22T17:34:23;94336.97;;;35.40;34.63
12793;BME280;6460;42.684;23.260;2023-07-22T17:36:50;94337.38;;;35.25;34.70
12793;BME280;6460;42.684;23.260;2023-07-22T17:39:19;94353.06;;;34.98;35.75
12793;BME280;6460;42.684;23.260;2023-07-22T17:41:47;94358.91;;;34.65;36.67
12793;BME280;6460;42.684;23.260;2023-07-22T17:44:14;94366.84;;;34.44;37.72
12793;BME280;6460;42.684;23.260;2023-07-22T17:46:41;94372.44;;;34.44;37.69
12793;BME280;6460;42.684;23.260;2023-07-22T17:49:08;94387.00;;;34.26;37.86
12793;BME280;6460;42.684;23.260;2023-07-22T17:51:38;94407.38;;;33.93;38.46
12793;BME280;6460;42.684;23.260;2023-07-22T17:54:05;94403.88;;;33.82;38.74
12793;BME280;6460;42.684;23.260;2023-07-22T17:56:32;94400.59;;;33.56;39.90
12793;BME280;6460;42.684;23.260;2023-07-22T17:59:01;94407.44;;;33.16;41.11
12793;BME280;6460;42.684;23.260;2023-07-22T18:01:29;94414.25;;;32.98;41.59
12793;BME280;6460;42.684;23.260;2023-07-22T18:03:56;94416.25;;;32.81;42.67
12793;BME280;6460;42.684;23.260;2023-07-22T18:06:23;94415.69;;;32.55;43.71
12793;BME280;6460;42.684;23.260;2023-07-22T18:08:52;94419.09;;;32.22;45.17
12793;BME280;6460;42.684;23.260;2023-07-22T18:11:19;94418.69;;;31.97;45.95
12793;BME280;6460;42.684;23.260;2023-07-22T18:13:47;94416.84;;;31.78;46.80
12793;BME280;6460;42.684;23.260;2023-07-22T18:16:14;94420.75;;;31.55;47.74
12793;BME280;6460;42.684;23.260;2023-07-22T18:18:42;94432.28;;;31.47;48.13
12793;BME280;6460;42.684;23.260;2023-07-22T18:21:09;94426.09;;;31.32;48.83
12793;BME280;6460;42.684;23.260;2023-07-22T18:23:36;94426.41;;;31.40;48.49
12793;BME280;6460;42.684;23.260;2023-07-22T18:26:05;94441.38;;;31.48;48.25
12793;BME280;6460;42.684;23.260;2023-07-22T18:28:32;94430.75;;;31.46;48.38
12793;BME280;6460;42.684;23.260;2023-07-22T18:30:59;94438.28;;;31.40;48.25
12793;BME280;6460;42.684;23.260;2023-07-22T18:33:26;94439.56;;;31.39;47.93
12793;BME280;6460;42.684;23.260;2023-07-22T18:35:53;94441.78;;;31.35;48.33
12793;BME280;6460;42.684;23.260;2023-07-22T18:38:20;94447.50;;;31.52;47.85
12793;BME280;6460;42.684;23.260;2023-07-22T18:40:47;94462.75;;;31.68;47.63
12793;BME280;6460;42.684;23.260;2023-07-22T18:43:16;94458.31;;;31.50;48.04
12793;BME280;6460;42.684;23.260;2023-07-22T18:45:43;94453.47;;;31.14;49.28
12793;BME280;6460;42.684;23.260;2023-07-22T18:48:10;94450.69;;;30.88;50.38
12793;BME280;6460;42.684;23.260;2023-07-22T18:50:39;94453.34;;;30.77;50.63
12793;BME280;6460;42.684;23.260;2023-07-22T18:53:06;94457.34;;;30.50;51.63
12793;BME280;6460;42.684;23.260;2023-07-22T18:55:35;94458.44;;;30.58;51.67
12793;BME280;6460;42.684;23.260;2023-07-22T18:58:02;94451.84;;;30.56;51.95
12793;BME280;6460;42.684;23.260;2023-07-22T19:00:30;94452.69;;;30.62;51.83
12793;BME280;6460;42.684;23.260;2023-07-22T19:02:58;94457.66;;;30.58;51.94
12793;BME280;6460;42.684;23.260;2023-07-22T19:05:25;94453.31;;;30.51;52.08
12793;BME280;6460;42.684;23.260;2023-07-22T19:07:52;94466.13;;;30.28;53.83
12793;BME280;6460;42.684;23.260;2023-07-22T19:10:20;94461.56;;;30.46;52.89
12793;BME280;6460;42.684;23.260;2023-07-22T19:12:47;94464.69;;;30.53;52.82